sensor_id;sensor_type;location;lat;lon;timestamp;P1;durP1;ratioP1;P2;durP2;ratioP2
23280;SDS011;11809;56.390;-3.266;2023-05-07T00:00:02;1.05;;;0.70;;
23280;SDS011;11809;56.390;-3.266;2023-05-07T00:02:36;1.13;;;1.02;;
23280;SDS011;11809;56.390;-3.266;2023-05-07T00:05:04;0.75;;;0.75;;
23280;SDS011;11809;56.390;-3.266;2023-05-07T00:07:32;0.90;;;0.90;;
23280;SDS011;11809;56.390;-3.266;2023-05-07T00:09:59;3.28;;;0.90;;
23280;SDS011;11809;56.390;-3.266;2023-05-07T00:12:26;1.75;;;0.98;;
23280;SDS011;11809;56.390;-3.266;2023-05-07T00:14:53;9.90;;;1.00;;
23280;SDS011;11809;56.390;-3.266;2023-05-07T00:17:20;1.00;;;0.90;;
23280;SDS011;11809;56.390;-3.266;2023-05-07T00:19:47;1.55;;;1.00;;
23280;SDS011;11809;56.390;-3.266;2023-05-07T00:22:14;1.10;;;1.00;;
23280;SDS011;11809;56.390;-3.266;2023-05-07T00:24:42;0.90;;;0.90;;
23280;SDS011;11809;56.390;-3.266;2023-05-07T00:27:09;0.90;;;0.90;;
23280;SDS011;11809;56.390;-3.266;2023-05-07T00:29:36;1.02;;;0.80;;
23280;SDS011;11809;56.390;-3.266;2023-05-07T00:32:03;1.38;;;0.90;;
23280;SDS011;11809;56.390;-3.266;2023-05-07T00:34:30;0.90;;;0.90;;
23280;SDS011;11809;56.390;-3.266;2023-05-07T00:36:58;0.90;;;0.90;;
23280;SDS011;11809;56.390;-3.266;2023-05-07T00:39:25;1.10;;;1.02;;
23280;SDS011;11809;56.390;-3.266;2023-05-07T00:41:52;0.85;;;0.85;;
23280;SDS011;11809;56.390;-3.266;2023-05-07T00:44:19;2.25;;;0.80;;
23280;SDS011;11809;56.390;-3.266;2023-05-07T00:46:46;1.13;;;1.05;;
23280;SDS011;11809;56.390;-3.266;2023-05-07T00:49:16;0.77;;;0.77;;
23280;SDS011;11809;56.390;-3.266;2023-05-07T00:51:45;0.70;;;0.70;;
23280;SDS011;11809;56.390;-3.266;2023-05-07T00:54:12;0.77;;;0.65;;
23280;SDS011;11809;56.390;-3.266;2023-05-07T00:56:40;0.68;;;0.68;;
23280;SDS011;11809;56.390;-3.266;2023-05-07T00:59:07;0.85;;;0.80;;
23280;SDS011;11809;56.390;-3.266;2023-05-07T01:01:35;0.73;;;0.73;;
23280;SDS011;11809;56.390;-3.266;2023-05-07T01:04:03;0.70;;;0.70;;
23280;SDS011;11809;56.390;-3.266;2023-05-07T01:06:31;0.70;;;0.70;;
23280;SDS011;11809;56.390;-3.266;2023-05-07T01:09:00;0.75;;;0.60;;
23280;SDS011;11809;56.390;-3.266;2023-05-07T01:11:27;1.48;;;0.50;;
23280;SDS011;11809;56.390;-3.266;2023-05-07T01:13:55;0.60;;;0.60;;
23280;SDS011;11809;56.390;-3.266;2023-05-07T01:16:23;0.60;;;0.60;;
23280;SDS011;11809;56.390;-3.266;2023-05-07T01:18:50;0.70;;;0.70;;
23280;SDS011;11809;56.390;-3.266;2023-05-07T01:21:17;0.70;;;0.60;;
23280;SDS011;11809;56.390;-3.266;2023-05-07T01:23:45;0.82;;;0.70;;
23280;SDS011;11809;56.390;-3.266;2023-05-07T01:26:12;2.20;;;0.75;;
23280;SDS011;11809;56.390;-3.266;2023-05-07T01:28:39;0.70;;;0.60;;
23280;SDS011;11809;56.390;-3.266;2023-05-07T01:31:06;0.70;;;0.70;;
23280;SDS011;11809;56.390;-3.266;2023-05-07T01:33:35;0.65;;;0.60;;
23280;SDS011;11809;56.390;-3.266;2023-05-07T01:36:04;0.70;;;0.70;;
23280;SDS011;11809;56.390;-3.266;2023-05-07T01:38:33;1.58;;;0.60;;
23280;SDS011;11809;56.390;-3.266;2023-05-07T01:41:02;0.52;;;0.52;;
23280;SDS011;11809;56.390;-3.266;2023-05-07T01:43:29;0.93;;;0.63;;
23280;SDS011;11809;56.390;-3.266;2023-05-07T01:45:57;1.50;;;0.60;;
23280;SDS011;11809;56.390;-3.266;2023-05-07T01:48:25;0.80;;;0.80;;
23280;SDS011;11809;56.390;-3.266;2023-05-07T01:50:53;0.80;;;0.80;;
23280;SDS011;11809;56.390;-3.266;2023-05-07T01:53:20;0.77;;;0.75;;
23280;SDS011;11809;56.390;-3.266;2023-05-07T01:55:47;0.73;;;0.73;;
23280;SDS011;11809;56.390;-3.266;2023-05-07T01:58:14;0.60;;;0.60;;
23280;SDS011;11809;56.390;-3.266;2023-05-07T02:00:41;0.95;;;0.80;;
23280;SDS011;11809;56.390;-3.266;2023-05-07T02:03:08;0.85;;;0.85;;
23280;SDS011;11809;56.390;-3.266;2023-05-07T02:05:36;0.93;;;0.77;;
23280;SDS011;11809;56.390;-3.266;2023-05-07T02:08:03;0.77;;;0.77;;
23280;SDS011;11809;56.390;-3.266;2023-05-07T02:10:30;0.70;;;0.70;;
23280;SDS011;11809;56.390;-3.266;2023-05-07T02:12:57;0.68;;;0.68;;
23280;SDS011;11809;56.390;-3.266;2023-05-07T02:15:24;1.25;;;0.73;;
23280;SDS011;11809;56.390;-3.266;2023-05-07T02:17:58;0.80;;;0.80;;
23280;SDS011;11809;56.390;-3.266;2023-05-07T02:20:35;1.02;;;0.98;;
23280;SDS011;11809;56.390;-3.266;2023-05-07T02:23:02;0.75;;;0.75;;
23280;SDS011;11809;56.390;-3.266;2023-05-07T02:25:29;0.95;;;0.90;;
23280;SDS011;11809;56.390;-3.266;2023-05-07T02:27:56;1.02;;;0.80;;
23280;SDS011;11809;56.390;-3.266;2023-05-07T02:30:24;1.05;;;0.95;;
23280;SDS011;11809;56.390;-3.266;2023-05-07T02:32:51;1.10;;;1.00;;
23280;SDS011;11809;56.390;-3.266;2023-05-07T02:35:18;1.00;;;0.90;;
23280;SDS011;11809;56.390;-3.266;2023-05-07T02:37:45;1.10;;;1.00;;
23280;SDS011;11809;56.390;-3.266;2023-05-07T02:40:12;1.10;;;1.00;;
23280;SDS011;11809;56.390;-3.266;2023-05-07T02:42:39;1.02;;;1.00;;
23280;SDS011;11809;56.390;-3.266;2023-05-07T02:45:07;1.33;;;1.23;;
23280;SDS011;11809;56.390;-3.266;2023-05-07T02:47:34;0.90;;;0.90;;
23280;SDS011;11809;56.390;-3.266;2023-05-07T02:50:02;2.25;;;1.10;;
23280;SDS011;11809;56.390;-3.266;2023-05-07T02:52:29;1.10;;;1.00;;
23280;SDS011;11809;56.390;-3.266;2023-05-07T02:54:56;1.25;;;1.15;;
23280;SDS011;11809;56.390;-3.266;2023-05-07T02:57:23;1.55;;;1.35;;
23280;SDS011;11809;56.390;-3.266;2023-05-07T02:59:50;0.93;;;0.93;;
23280;SDS011;11809;56.390;-3.266;2023-05-07T03:02:18;1.15;;;1.05;;
23280;SDS011;11809;56.390;-3.266;2023-05-07T03:04:45;1.50;;;1.25;;
23280;SDS011;11809;56.390;-3.266;2023-05-07T03:07:12;1.30;;;1.20;;
23280;SDS011;11809;56.390;-3.266;2023-05-07T03:09:39;1.60;;;1.30;;
23280;SDS011;11809;56.390;-3.266;2023-05-07T03:12:06;1.13;;;1.00;;
23280;SDS011;11809;56.390;-3.266;2023-05-07T03:14:33;1.23;;;1.10;;
23280;SDS011;11809;56.390;-3.266;2023-05-07T03:17:00;1.42;;;1.20;;
23280;SDS011;11809;56.390;-3.266;2023-05-07T03:19:27;1.25;;;1.15;;
23280;SDS011;11809;56.390;-3.266;2023-05-07T03:21:54;1.30;;;1.20;;
23280;SDS011;11809;56.390;-3.266;2023-05-07T03:24:22;1.35;;;1.20;;
23280;SDS011;11809;56.390;-3.266;2023-05-07T03:26:48;1.38;;;1.27;;
23280;SDS011;11809;56.390;-3.266;2023-05-07T03:29:15;1.27;;;1.10;;
23280;SDS011;11809;56.390;-3.266;2023-05-07T03:31:43;1.40;;;1.30;;
23280;SDS011;11809;56.390;-3.266;2023-05-07T03:34:10;2.33;;;1.48;;
23280;SDS011;11809;56.390;-3.266;2023-05-07T03:36:37;1.35;;;1.25;;
23280;SDS011;11809;56.390;-3.266;2023-05-07T03:39:04;1.25;;;1.15;;
23280;SDS011;11809;56.390;-3.266;2023-05-07T03:41:32;1.30;;;1.10;;
23280;SDS011;11809;56.390;-3.266;2023-05-07T03:43:59;1.85;;;1.65;;
23280;SDS011;11809;56.390;-3.266;2023-05-07T03:46:26;2.33;;;1.15;;
23280;SDS011;11809;56.390;-3.266;2023-05-07T03:48:54;1.40;;;1.30;;
23280;SDS011;11809;56.390;-3.266;2023-05-07T03:51:21;1.50;;;1.40;;
23280;SDS011;11809;56.390;-3.266;2023-05-07T03:53:48;1.50;;;1.40;;
23280;SDS011;11809;56.390;-3.266;2023-05-07T03:56:15;2.25;;;1.10;;
23280;SDS011;11809;56.390;-3.266;2023-05-07T03:58:45;1.30;;;1.20;;
23280;SDS011;11809;56.390;-3.266;2023-05-07T04:01:12;1.20;;;1.10;;
23280;SDS011;11809;56.390;-3.266;2023-05-07T04:03:39;1.30;;;1.20;;
23280;SDS011;11809;56.390;-3.266;2023-05-07T04:06:06;2.35;;;1.30;;
23280;SDS011;11809;56.390;-3.266;2023-05-07T04:08:33;1.33;;;1.23;;
23280;SDS011;11809;56.390;-3.266;2023-05-07T04:11:00;1.27;;;1.17;;
23280;SDS011;11809;56.390;-3.266;2023-05-07T04:13:27;1.10;;;1.00;;
23280;SDS011;11809;56.390;-3.266;2023-05-07T04:15:54;1.40;;;1.30;;
23280;SDS011;11809;56.390;-3.266;2023-05-07T04:18:22;1.17;;;1.08;;
23280;SDS011;11809;56.390;-3.266;2023-05-07T04:20:49;1.27;;;1.17;;
23280;SDS011;11809;56.390;-3.266;2023-05-07T04:23:16;1.05;;;0.90;;
23280;SDS011;11809;56.390;-3.266;2023-05-07T04:25:43;6.80;;;1.30;;
23280;SDS011;11809;56.390;-3.266;2023-05-07T04:28:10;6.32;;;2.65;;
23280;SDS011;11809;56.390;-3.266;2023-05-07T04:30:38;46.17;;;5.70;;
23280;SDS011;11809;56.390;-3.266;2023-05-07T04:33:05;14.50;;;3.40;;
23280;SDS011;11809;56.390;-3.266;2023-05-07T04:35:33;14.73;;;2.88;;
23280;SDS011;11809;56.390;-3.266;2023-05-07T04:38:00;12.27;;;2.95;;
23280;SDS011;11809;56.390;-3.266;2023-05-07T04:40:28;9.10;;;2.40;;
23280;SDS011;11809;56.390;-3.266;2023-05-07T04:42:55;15.75;;;2.42;;
23280;SDS011;11809;56.390;-3.266;2023-05-07T04:45:22;13.07;;;2.72;;
23280;SDS011;11809;56.390;-3.266;2023-05-07T04:47:49;8.65;;;2.10;;
23280;SDS011;11809;56.390;-3.266;2023-05-07T04:50:16;59.30;;;5.55;;
23280;SDS011;11809;56.390;-3.266;2023-05-07T04:52:45;17.80;;;2.85;;
23280;SDS011;11809;56.390;-3.266;2023-05-07T04:55:12;7.88;;;2.30;;
23280;SDS011;11809;56.390;-3.266;2023-05-07T04:57:39;9.85;;;2.45;;
23280;SDS011;11809;56.390;-3.266;2023-05-07T05:00:08;9.10;;;2.45;;
23280;SDS011;11809;56.390;-3.266;2023-05-07T05:02:35;10.68;;;2.10;;
23280;SDS011;11809;56.390;-3.266;2023-05-07T05:05:02;6.32;;;2.20;;
23280;SDS011;11809;56.390;-3.266;2023-05-07T05:07:30;9.57;;;2.00;;
23280;SDS011;11809;56.390;-3.266;2023-05-07T05:09:57;17.05;;;2.45;;
23280;SDS011;11809;56.390;-3.266;2023-05-07T05:12:24;7.10;;;2.17;;
23280;SDS011;11809;56.390;-3.266;2023-05-07T05:14:51;12.45;;;1.83;;
23280;SDS011;11809;56.390;-3.266;2023-05-07T05:17:18;6.07;;;2.00;;
23280;SDS011;11809;56.390;-3.266;2023-05-07T05:19:45;7.82;;;1.80;;
23280;SDS011;11809;56.390;-3.266;2023-05-07T05:22:12;3.58;;;1.85;;
23280;SDS011;11809;56.390;-3.266;2023-05-07T05:24:39;4.35;;;1.40;;
23280;SDS011;11809;56.390;-3.266;2023-05-07T05:27:06;3.45;;;1.92;;
23280;SDS011;11809;56.390;-3.266;2023-05-07T05:29:33;4.30;;;1.80;;
23280;SDS011;11809;56.390;-3.266;2023-05-07T05:32:00;5.55;;;1.67;;
23280;SDS011;11809;56.390;-3.266;2023-05-07T05:34:27;4.72;;;1.48;;
23280;SDS011;11809;56.390;-3.266;2023-05-07T05:36:54;5.53;;;1.45;;
23280;SDS011;11809;56.390;-3.266;2023-05-07T05:39:21;1.70;;;1.55;;
23280;SDS011;11809;56.390;-3.266;2023-05-07T05:41:49;6.78;;;1.90;;
23280;SDS011;11809;56.390;-3.266;2023-05-07T05:44:16;5.38;;;1.80;;
23280;SDS011;11809;56.390;-3.266;2023-05-07T05:46:43;2.90;;;1.45;;
23280;SDS011;11809;56.390;-3.266;2023-05-07T05:49:11;4.68;;;1.65;;
23280;SDS011;11809;56.390;-3.266;2023-05-07T05:51:38;3.65;;;1.52;;
23280;SDS011;11809;56.390;-3.266;2023-05-07T05:54:05;3.22;;;1.55;;
23280;SDS011;11809;56.390;-3.266;2023-05-07T05:56:32;3.85;;;1.45;;
23280;SDS011;11809;56.390;-3.266;2023-05-07T05:58:59;2.58;;;1.50;;
23280;SDS011;11809;56.390;-3.266;2023-05-07T06:01:26;1.58;;;1.48;;
23280;SDS011;11809;56.390;-3.266;2023-05-07T06:03:53;3.42;;;1.42;;
23280;SDS011;11809;56.390;-3.266;2023-05-07T06:06:20;1.63;;;1.52;;
23280;SDS011;11809;56.390;-3.266;2023-05-07T06:08:47;1.50;;;1.25;;
23280;SDS011;11809;56.390;-3.266;2023-05-07T06:11:15;2.35;;;1.83;;
23280;SDS011;11809;56.390;-3.266;2023-05-07T06:13:42;1.52;;;1.40;;
23280;SDS011;11809;56.390;-3.266;2023-05-07T06:16:09;2.55;;;1.50;;
23280;SDS011;11809;56.390;-3.266;2023-05-07T06:18:36;2.38;;;1.48;;
23280;SDS011;11809;56.390;-3.266;2023-05-07T06:21:03;1.80;;;1.70;;
23280;SDS011;11809;56.390;-3.266;2023-05-07T06:23:30;3.33;;;1.67;;
23280;SDS011;11809;56.390;-3.266;2023-05-07T06:25:57;2.75;;;1.23;;
23280;SDS011;11809;56.390;-3.266;2023-05-07T06:28:24;2.58;;;1.60;;
23280;SDS011;11809;56.390;-3.266;2023-05-07T06:30:51;2.35;;;1.70;;
23280;SDS011;11809;56.390;-3.266;2023-05-07T06:33:18;2.88;;;1.70;;
23280;SDS011;11809;56.390;-3.266;2023-05-07T06:35:46;2.10;;;1.80;;
23280;SDS011;11809;56.390;-3.266;2023-05-07T06:38:13;2.78;;;1.58;;
23280;SDS011;11809;56.390;-3.266;2023-05-07T06:40:40;4.88;;;1.50;;
23280;SDS011;11809;56.390;-3.266;2023-05-07T06:43:07;2.72;;;1.67;;
23280;SDS011;11809;56.390;-3.266;2023-05-07T06:45:34;1.75;;;1.65;;
23280;SDS011;11809;56.390;-3.266;2023-05-07T06:48:02;2.00;;;1.80;;
23280;SDS011;11809;56.390;-3.266;2023-05-07T06:50:29;1.77;;;1.50;;
23280;SDS011;11809;56.390;-3.266;2023-05-07T06:52:56;1.77;;;1.67;;
23280;SDS011;11809;56.390;-3.266;2023-05-07T06:55:23;2.08;;;1.67;;
23280;SDS011;11809;56.390;-3.266;2023-05-07T06:57:50;3.08;;;1.67;;
23280;SDS011;11809;56.390;-3.266;2023-05-07T07:00:17;9.98;;;1.52;;
23280;SDS011;11809;56.390;-3.266;2023-05-07T07:02:45;3.00;;;1.63;;
23280;SDS011;11809;56.390;-3.266;2023-05-07T07:05:12;3.03;;;1.48;;
23280;SDS011;11809;56.390;-3.266;2023-05-07T07:07:39;2.45;;;1.50;;
23280;SDS011;11809;56.390;-3.266;2023-05-07T07:10:06;1.83;;;1.70;;
23280;SDS011;11809;56.390;-3.266;2023-05-07T07:12:34;4.45;;;1.80;;
23280;SDS011;11809;56.390;-3.266;2023-05-07T07:15:01;1.60;;;1.50;;
23280;SDS011;11809;56.390;-3.266;2023-05-07T07:17:29;3.00;;;1.63;;
23280;SDS011;11809;56.390;-3.266;2023-05-07T07:19:56;1.85;;;1.73;;
23280;SDS011;11809;56.390;-3.266;2023-05-07T07:22:23;3.63;;;1.50;;
23280;SDS011;11809;56.390;-3.266;2023-05-07T07:24:50;4.32;;;1.55;;
23280;SDS011;11809;56.390;-3.266;2023-05-07T07:27:17;2.85;;;1.45;;
23280;SDS011;11809;56.390;-3.266;2023-05-07T07:29:44;3.25;;;1.55;;
23280;SDS011;11809;56.390;-3.266;2023-05-07T07:32:12;3.60;;;1.88;;
23280;SDS011;11809;56.390;-3.266;2023-05-07T07:34:39;4.57;;;1.75;;
23280;SDS011;11809;56.390;-3.266;2023-05-07T07:37:06;3.35;;;2.10;;
23280;SDS011;11809;56.390;-3.266;2023-05-07T07:39:33;2.08;;;1.90;;
23280;SDS011;11809;56.390;-3.266;2023-05-07T07:42:00;1.63;;;1.52;;
23280;SDS011;11809;56.390;-3.266;2023-05-07T07:44:27;5.38;;;2.00;;
23280;SDS011;11809;56.390;-3.266;2023-05-07T07:46:54;13.23;;;3.20;;
23280;SDS011;11809;56.390;-3.266;2023-05-07T07:49:22;4.65;;;2.92;;
23280;SDS011;11809;56.390;-3.266;2023-05-07T07:51:49;16.35;;;3.25;;
23280;SDS011;11809;56.390;-3.266;2023-05-07T07:54:16;13.82;;;2.80;;
23280;SDS011;11809;56.390;-3.266;2023-05-07T07:56:43;16.42;;;3.30;;
23280;SDS011;11809;56.390;-3.266;2023-05-07T07:59:10;12.23;;;2.42;;
23280;SDS011;11809;56.390;-3.266;2023-05-07T08:01:37;4.93;;;2.53;;
23280;SDS011;11809;56.390;-3.266;2023-05-07T08:04:04;11.20;;;3.95;;
23280;SDS011;11809;56.390;-3.266;2023-05-07T08:06:32;7.20;;;3.47;;
23280;SDS011;11809;56.390;-3.266;2023-05-07T08:08:59;6.57;;;3.05;;
23280;SDS011;11809;56.390;-3.266;2023-05-07T08:11:26;12.18;;;3.10;;
23280;SDS011;11809;56.390;-3.266;2023-05-07T08:13:54;25.98;;;3.65;;
23280;SDS011;11809;56.390;-3.266;2023-05-07T08:16:21;17.13;;;3.65;;
23280;SDS011;11809;56.390;-3.266;2023-05-07T08:18:49;10.70;;;3.78;;
23280;SDS011;11809;56.390;-3.266;2023-05-07T08:21:16;12.93;;;3.33;;
23280;SDS011;11809;56.390;-3.266;2023-05-07T08:23:44;15.48;;;4.10;;
23280;SDS011;11809;56.390;-3.266;2023-05-07T08:26:11;15.93;;;4.57;;
23280;SDS011;11809;56.390;-3.266;2023-05-07T08:28:38;10.10;;;4.28;;
23280;SDS011;11809;56.390;-3.266;2023-05-07T08:31:06;11.65;;;4.28;;
23280;SDS011;11809;56.390;-3.266;2023-05-07T08:33:33;6.82;;;3.83;;
23280;SDS011;11809;56.390;-3.266;2023-05-07T08:36:00;6.05;;;3.63;;
23280;SDS011;11809;56.390;-3.266;2023-05-07T08:38:28;7.22;;;3.38;;
23280;SDS011;11809;56.390;-3.266;2023-05-07T08:40:55;12.40;;;4.07;;
23280;SDS011;11809;56.390;-3.266;2023-05-07T08:43:23;9.13;;;3.63;;
23280;SDS011;11809;56.390;-3.266;2023-05-07T08:45:54;6.15;;;3.13;;
23280;SDS011;11809;56.390;-3.266;2023-05-07T08:48:25;8.13;;;3.37;;
23280;SDS011;11809;56.390;-3.266;2023-05-07T08:50:53;17.00;;;3.75;;
23280;SDS011;11809;56.390;-3.266;2023-05-07T08:53:20;12.65;;;3.30;;
23280;SDS011;11809;56.390;-3.266;2023-05-07T08:55:47;15.40;;;3.55;;
23280;SDS011;11809;56.390;-3.266;2023-05-07T08:58:15;17.05;;;3.38;;
23280;SDS011;11809;56.390;-3.266;2023-05-07T09:00:42;14.40;;;3.50;;
23280;SDS011;11809;56.390;-3.266;2023-05-07T09:03:10;13.70;;;3.83;;
23280;SDS011;11809;56.390;-3.266;2023-05-07T09:05:39;16.98;;;3.60;;
23280;SDS011;11809;56.390;-3.266;2023-05-07T09:08:07;28.05;;;3.17;;
23280;SDS011;11809;56.390;-3.266;2023-05-07T09:10:34;19.45;;;3.42;;
23280;SDS011;11809;56.390;-3.266;2023-05-07T09:13:02;25.10;;;5.15;;
23280;SDS011;11809;56.390;-3.266;2023-05-07T09:15:29;13.10;;;3.63;;
23280;SDS011;11809;56.390;-3.266;2023-05-07T09:18:00;8.20;;;4.05;;
23280;SDS011;11809;56.390;-3.266;2023-05-07T09:20:30;6.38;;;3.33;;
23280;SDS011;11809;56.390;-3.266;2023-05-07T09:22:58;21.65;;;4.28;;
23280;SDS011;11809;56.390;-3.266;2023-05-07T09:25:29;9.63;;;3.42;;
23280;SDS011;11809;56.390;-3.266;2023-05-07T09:28:00;16.80;;;3.20;;
23280;SDS011;11809;56.390;-3.266;2023-05-07T09:30:29;9.38;;;2.85;;
23280;SDS011;11809;56.390;-3.266;2023-05-07T09:33:02;6.80;;;2.47;;
23280;SDS011;11809;56.390;-3.266;2023-05-07T09:35:30;9.23;;;3.08;;
23280;SDS011;11809;56.390;-3.266;2023-05-07T09:37:59;5.93;;;2.20;;
23280;SDS011;11809;56.390;-3.266;2023-05-07T09:40:30;73.60;;;6.45;;
23280;SDS011;11809;56.390;-3.266;2023-05-07T09:43:08;39.97;;;5.38;;
23280;SDS011;11809;56.390;-3.266;2023-05-07T09:45:36;12.25;;;4.20;;
23280;SDS011;11809;56.390;-3.266;2023-05-07T09:48:05;18.45;;;4.45;;
23280;SDS011;11809;56.390;-3.266;2023-05-07T09:50:38;13.20;;;4.28;;
23280;SDS011;11809;56.390;-3.266;2023-05-07T09:53:13;9.07;;;3.90;;
23280;SDS011;11809;56.390;-3.266;2023-05-07T09:55:41;9.25;;;4.25;;
23280;SDS011;11809;56.390;-3.266;2023-05-07T09:58:09;18.73;;;4.57;;
23280;SDS011;11809;56.390;-3.266;2023-05-07T10:00:39;15.73;;;5.00;;
23280;SDS011;11809;56.390;-3.266;2023-05-07T10:03:07;15.00;;;5.43;;
23280;SDS011;11809;56.390;-3.266;2023-05-07T10:05:36;16.83;;;4.80;;
23280;SDS011;11809;56.390;-3.266;2023-05-07T10:08:04;17.75;;;5.70;;
23280;SDS011;11809;56.390;-3.266;2023-05-07T10:10:32;9.93;;;5.20;;
23280;SDS011;11809;56.390;-3.266;2023-05-07T10:13:01;12.50;;;5.25;;
23280;SDS011;11809;56.390;-3.266;2023-05-07T10:15:28;14.52;;;5.10;;
23280;SDS011;11809;56.390;-3.266;2023-05-07T10:17:56;23.20;;;5.63;;
23280;SDS011;11809;56.390;-3.266;2023-05-07T10:20:24;14.55;;;4.53;;
23280;SDS011;11809;56.390;-3.266;2023-05-07T10:22:53;36.40;;;5.25;;
23280;SDS011;11809;56.390;-3.266;2023-05-07T10:25:25;25.77;;;4.57;;
23280;SDS011;11809;56.390;-3.266;2023-05-07T10:27:55;26.50;;;3.70;;
23280;SDS011;11809;56.390;-3.266;2023-05-07T10:33:04;10.52;;;3.33;;
23280;SDS011;11809;56.390;-3.266;2023-05-07T10:35:43;7.93;;;3.50;;
23280;SDS011;11809;56.390;-3.266;2023-05-07T10:38:11;13.52;;;3.38;;
23280;SDS011;11809;56.390;-3.266;2023-05-07T10:40:39;13.50;;;3.65;;
23280;SDS011;11809;56.390;-3.266;2023-05-07T10:43:06;9.68;;;3.90;;
23280;SDS011;11809;56.390;-3.266;2023-05-07T10:45:36;11.05;;;2.95;;
23280;SDS011;11809;56.390;-3.266;2023-05-07T10:48:06;17.15;;;3.88;;
23280;SDS011;11809;56.390;-3.266;2023-05-07T10:51:17;25.02;;;3.63;;
23280;SDS011;11809;56.390;-3.266;2023-05-07T10:53:48;14.35;;;3.83;;
23280;SDS011;11809;56.390;-3.266;2023-05-07T10:56:41;46.78;;;4.25;;
23280;SDS011;11809;56.390;-3.266;2023-05-07T11:02:02;25.95;;;4.35;;
23280;SDS011;11809;56.390;-3.266;2023-05-07T11:04:30;27.88;;;4.80;;
23280;SDS011;11809;56.390;-3.266;2023-05-07T11:09:54;17.63;;;3.25;;
23280;SDS011;11809;56.390;-3.266;2023-05-07T11:15:05;19.40;;;3.58;;
23280;SDS011;11809;56.390;-3.266;2023-05-07T11:17:35;18.70;;;3.50;;
23280;SDS011;11809;56.390;-3.266;2023-05-07T11:20:19;16.45;;;3.38;;
23280;SDS011;11809;56.390;-3.266;2023-05-07T11:22:47;9.60;;;3.08;;
23280;SDS011;11809;56.390;-3.266;2023-05-07T11:25:18;22.30;;;2.53;;
23280;SDS011;11809;56.390;-3.266;2023-05-07T11:27:45;20.63;;;2.85;;
23280;SDS011;11809;56.390;-3.266;2023-05-07T11:30:16;10.25;;;2.42;;
23280;SDS011;11809;56.390;-3.266;2023-05-07T11:32:46;14.70;;;2.75;;
23280;SDS011;11809;56.390;-3.266;2023-05-07T11:35:15;12.25;;;3.45;;
23280;SDS011;11809;56.390;-3.266;2023-05-07T11:37:43;17.73;;;2.35;;
23280;SDS011;11809;56.390;-3.266;2023-05-07T11:40:12;17.33;;;2.85;;
23280;SDS011;11809;56.390;-3.266;2023-05-07T11:42:40;6.68;;;2.20;;
23280;SDS011;11809;56.390;-3.266;2023-05-07T11:45:09;13.45;;;3.15;;
23280;SDS011;11809;56.390;-3.266;2023-05-07T11:47:37;8.40;;;2.70;;
23280;SDS011;11809;56.390;-3.266;2023-05-07T11:50:05;4.85;;;2.30;;
23280;SDS011;11809;56.390;-3.266;2023-05-07T11:52:34;17.50;;;2.97;;
23280;SDS011;11809;56.390;-3.266;2023-05-07T11:55:02;8.52;;;2.22;;
23280;SDS011;11809;56.390;-3.266;2023-05-07T11:57:32;3.60;;;1.95;;
23280;SDS011;11809;56.390;-3.266;2023-05-07T12:00:01;19.38;;;2.55;;
23280;SDS011;11809;56.390;-3.266;2023-05-07T12:02:31;15.15;;;2.95;;
23280;SDS011;11809;56.390;-3.266;2023-05-07T12:05:00;10.57;;;2.20;;
23280;SDS011;11809;56.390;-3.266;2023-05-07T12:07:27;19.38;;;2.83;;
23280;SDS011;11809;56.390;-3.266;2023-05-07T12:09:54;10.43;;;4.95;;
23280;SDS011;11809;56.390;-3.266;2023-05-07T12:12:21;12.85;;;5.30;;
23280;SDS011;11809;56.390;-3.266;2023-05-07T12:14:48;9.88;;;4.78;;
23280;SDS011;11809;56.390;-3.266;2023-05-07T12:17:16;21.15;;;5.30;;
23280;SDS011;11809;56.390;-3.266;2023-05-07T12:19:44;31.25;;;5.93;;
23280;SDS011;11809;56.390;-3.266;2023-05-07T12:22:11;28.55;;;7.07;;
23280;SDS011;11809;56.390;-3.266;2023-05-07T12:24:49;32.83;;;6.82;;
23280;SDS011;11809;56.390;-3.266;2023-05-07T12:27:23;20.27;;;4.63;;
23280;SDS011;11809;56.390;-3.266;2023-05-07T12:29:50;27.85;;;5.22;;
23280;SDS011;11809;56.390;-3.266;2023-05-07T12:32:17;19.33;;;5.97;;
23280;SDS011;11809;56.390;-3.266;2023-05-07T12:34:51;17.42;;;4.65;;
23280;SDS011;11809;56.390;-3.266;2023-05-07T12:37:23;20.48;;;4.00;;
23280;SDS011;11809;56.390;-3.266;2023-05-07T12:40:08;18.55;;;4.35;;
23280;SDS011;11809;56.390;-3.266;2023-05-07T12:42:37;25.67;;;4.57;;
23280;SDS011;11809;56.390;-3.266;2023-05-07T12:45:07;18.02;;;4.28;;
23280;SDS011;11809;56.390;-3.266;2023-05-07T12:47:43;16.38;;;4.72;;
23280;SDS011;11809;56.390;-3.266;2023-05-07T12:50:12;7.35;;;3.55;;
23280;SDS011;11809;56.390;-3.266;2023-05-07T12:52:43;32.47;;;4.50;;
23280;SDS011;11809;56.390;-3.266;2023-05-07T12:55:12;18.90;;;3.83;;
23280;SDS011;11809;56.390;-3.266;2023-05-07T12:57:42;20.23;;;4.00;;
23280;SDS011;11809;56.390;-3.266;2023-05-07T13:00:14;19.95;;;4.10;;
23280;SDS011;11809;56.390;-3.266;2023-05-07T13:02:42;13.05;;;3.63;;
23280;SDS011;11809;56.390;-3.266;2023-05-07T13:05:13;35.05;;;4.57;;
23280;SDS011;11809;56.390;-3.266;2023-05-07T13:07:40;26.25;;;4.93;;
23280;SDS011;11809;56.390;-3.266;2023-05-07T13:10:18;34.38;;;5.18;;
23280;SDS011;11809;56.390;-3.266;2023-05-07T13:12:45;24.67;;;4.75;;
23280;SDS011;11809;56.390;-3.266;2023-05-07T13:15:12;24.60;;;4.88;;
23280;SDS011;11809;56.390;-3.266;2023-05-07T13:17:39;40.65;;;5.70;;
23280;SDS011;11809;56.390;-3.266;2023-05-07T13:20:06;34.58;;;5.38;;
23280;SDS011;11809;56.390;-3.266;2023-05-07T13:22:35;59.30;;;6.40;;
23280;SDS011;11809;56.390;-3.266;2023-05-07T13:25:02;33.20;;;3.80;;
23280;SDS011;11809;56.390;-3.266;2023-05-07T13:27:30;36.67;;;4.15;;
23280;SDS011;11809;56.390;-3.266;2023-05-07T13:30:03;30.20;;;4.30;;
23280;SDS011;11809;56.390;-3.266;2023-05-07T13:32:32;35.38;;;3.63;;
23280;SDS011;11809;56.390;-3.266;2023-05-07T13:34:59;34.83;;;6.32;;
23280;SDS011;11809;56.390;-3.266;2023-05-07T13:37:26;56.25;;;6.43;;
23280;SDS011;11809;56.390;-3.266;2023-05-07T13:39:53;39.45;;;6.50;;
23280;SDS011;11809;56.390;-3.266;2023-05-07T13:42:21;37.22;;;5.25;;
23280;SDS011;11809;56.390;-3.266;2023-05-07T13:44:48;34.00;;;5.22;;
23280;SDS011;11809;56.390;-3.266;2023-05-07T13:47:15;29.85;;;6.75;;
23280;SDS011;11809;56.390;-3.266;2023-05-07T13:49:42;390.95;;;22.08;;
23280;SDS011;11809;56.390;-3.266;2023-05-07T13:52:09;40.25;;;7.20;;
23280;SDS011;11809;56.390;-3.266;2023-05-07T13:54:37;26.33;;;6.15;;
23280;SDS011;11809;56.390;-3.266;2023-05-07T13:57:05;22.77;;;6.07;;
23280;SDS011;11809;56.390;-3.266;2023-05-07T13:59:32;40.72;;;7.65;;
23280;SDS011;11809;56.390;-3.266;2023-05-07T14:01:59;73.85;;;8.10;;
23280;SDS011;11809;56.390;-3.266;2023-05-07T14:04:26;55.42;;;7.40;;
23280;SDS011;11809;56.390;-3.266;2023-05-07T14:06:53;40.33;;;7.38;;
23280;SDS011;11809;56.390;-3.266;2023-05-07T14:09:20;49.83;;;6.50;;
23280;SDS011;11809;56.390;-3.266;2023-05-07T14:11:47;48.40;;;6.15;;
23280;SDS011;11809;56.390;-3.266;2023-05-07T14:14:18;46.00;;;6.27;;
23280;SDS011;11809;56.390;-3.266;2023-05-07T14:16:45;38.03;;;5.88;;
23280;SDS011;11809;56.390;-3.266;2023-05-07T14:19:15;27.85;;;5.32;;
23280;SDS011;11809;56.390;-3.266;2023-05-07T14:21:43;47.80;;;6.97;;
23280;SDS011;11809;56.390;-3.266;2023-05-07T14:24:10;45.50;;;6.30;;
23280;SDS011;11809;56.390;-3.266;2023-05-07T14:26:37;43.08;;;6.88;;
23280;SDS011;11809;56.390;-3.266;2023-05-07T14:29:04;31.58;;;6.95;;
23280;SDS011;11809;56.390;-3.266;2023-05-07T14:31:31;30.75;;;7.03;;
23280;SDS011;11809;56.390;-3.266;2023-05-07T14:34:00;42.13;;;6.82;;
23280;SDS011;11809;56.390;-3.266;2023-05-07T14:36:27;37.40;;;6.72;;
23280;SDS011;11809;56.390;-3.266;2023-05-07T14:38:54;39.38;;;7.30;;
23280;SDS011;11809;56.390;-3.266;2023-05-07T14:41:21;40.47;;;6.43;;
23280;SDS011;11809;56.390;-3.266;2023-05-07T14:43:48;32.70;;;6.63;;